Time;durP1;ratioP1;P1;durP2;ratioP2;P2;SDS_P1;SDS_P2;PMS_P1;PMS_P2;Temp;Humidity;BMP_temperature;BMP_pressure;BME280_temperature;BME280_humidity;BME280_pressure;Samples;Min_cycle;Max_cycle;Signal;HPM_P1;HPM_P2
2023/12/22 00:00:47;;;;;;;6.05;0.93;;;;;;;10.25;87.71;99254.00;8452726;28;20522;-58
2023/12/22 00:04:47;;;;;;;4.07;0.80;;;;;;;9.44;84.26;99304.25;8452745;28;20043;-58
2023/12/22 00:08:48;;;;;;;5.82;0.73;;;;;;;8.49;87.11;99301.88;8451369;28;20056;-57
2023/12/22 00:12:48;;;;;;;3.53;0.50;;;;;;;8.24;89.95;99273.06;8448453;28;20035;-59
2023/12/22 00:16:48;;;;;;;5.00;0.70;;;;;;;8.17;92.21;99264.72;8452690;28;20362;-58
2023/12/22 00:20:49;;;;;;;6.63;0.57;;;;;;;8.05;95.54;99285.66;8448333;28;20126;-58
2023/12/22 00:24:49;;;;;;;8.90;0.63;;;;;;;8.18;96.22;99297.88;8453339;28;20043;-59
2023/12/22 00:28:50;;;;;;;5.47;0.85;;;;;;;8.10;98.02;99312.13;8450444;28;20530;-55
2023/12/22 00:32:50;;;;;;;12.93;0.85;;;;;;;8.12;99.21;99301.19;8393457;28;20635;-57
2023/12/22 00:36:51;;;;;;;6.57;0.80;;;;;;;8.01;99.74;99278.91;8353485;28;20772;-57
2023/12/22 00:40:51;;;;;;;8.02;0.93;;;;;;;8.09;100.00;99295.13;8352934;28;20262;-57
2023/12/22 00:44:51;;;;;;;8.93;0.85;;;;;;;8.11;100.00;99297.66;8354706;28;20776;-57
2023/12/22 00:48:52;;;;;;;6.90;1.25;;;;;;;8.14;100.00;99304.59;8375851;28;20263;-57
2023/12/22 00:52:52;;;;;;;4.75;0.88;;;;;;;8.17;100.00;99296.22;8368594;28;20040;-55
2023/12/22 00:56:53;;;;;;;9.02;1.10;;;;;;;8.20;100.00;99309.34;8374807;28;20268;-56
2023/12/22 01:00:53;;;;;;;5.80;0.90;;;;;;;8.25;100.00;99301.66;8362008;28;20329;-58
2023/12/22 01:04:54;;;;;;;8.60;1.00;;;;;;;8.24;100.00;99297.31;8404149;28;20297;-57
2023/12/22 01:08:54;;;;;;;6.22;0.90;;;;;;;8.35;100.00;99340.16;8400094;28;20351;-58
2023/12/22 01:12:55;;;;;;;4.80;0.93;;;;;;;8.35;100.00;99329.38;8402392;28;20047;-56
2023/12/22 01:16:55;;;;;;;8.30;0.90;;;;;;;8.36;100.00;99299.59;8402454;28;20391;-58
2023/12/22 01:20:56;;;;;;;6.70;1.17;;;;;;;8.42;100.00;99304.34;8403378;28;20047;-57
2023/12/22 01:24:56;;;;;;;12.88;1.83;;;;;;;8.58;100.00;99331.41;8415880;28;20481;-59
2023/12/22 01:28:56;;;;;;;13.52;1.50;;;;;;;8.71;99.36;99326.44;8453912;27;20055;-58
2023/12/22 01:32:57;;;;;;;11.75;1.27;;;;;;;8.84;98.76;99301.78;8457358;28;20458;-61
2023/12/22 01:36:57;;;;;;;11.23;1.95;;;;;;;8.81;98.27;99297.53;8458412;28;20494;-58
2023/12/22 01:40:58;;;;;;;7.25;1.80;;;;;;;8.79;98.49;99296.03;8458432;28;20054;-60
2023/12/22 01:44:58;;;;;;;9.68;1.38;;;;;;;8.80;99.20;99313.88;8458402;27;20036;-58
2023/12/22 01:49:01;;;;;;;12.80;1.80;;;;;;;8.82;98.96;99306.47;8457902;28;20050;-58
2023/12/22 01:53:01;;;;;;;15.65;1.70;;;;;;;8.87;99.01;99317.59;8457612;28;20047;-56
2023/12/22 01:57:02;;;;;;;10.20;1.33;;;;;;;8.99;98.43;99319.03;8458113;28;20119;-58
2023/12/22 02:01:03;;;;;;;10.63;1.90;;;;;;;9.11;96.65;99306.97;8447691;28;20349;-56
2023/12/22 02:05:09;;;;;;;13.10;1.73;;;;;;;9.15;95.58;99313.75;8399084;28;20592;-57
2023/12/22 02:09:09;;;;;;;12.93;2.03;;;;;;;9.12;96.26;99319.47;8400257;28;20127;-57
2023/12/22 02:13:10;;;;;;;18.00;2.47;;;;;;;9.24;95.25;99331.66;8401114;28;20237;-57
2023/12/22 02:17:22;;;;;;;9.88;1.75;;;;;;;9.37;94.34;99323.97;8401370;28;20059;-57
2023/12/22 02:21:22;;;;;;;13.43;1.70;;;;;;;9.34;95.67;99335.06;8394756;27;20173;-58
2023/12/22 02:25:23;;;;;;;20.23;2.03;;;;;;;9.49;94.73;99338.84;8381489;28;20047;-57
2023/12/22 02:29:25;;;;;;;15.23;1.88;;;;;;;9.68;90.61;99328.63;8365434;28;20040;-57
2023/12/22 02:33:28;;;;;;;8.82;2.00;;;;;;;9.87;89.38;99327.50;8401917;28;20494;-57
2023/12/22 02:37:29;;;;;;;14.23;1.70;;;;;;;9.89;88.95;99336.28;8384196;27;20285;-57
2023/12/22 02:41:31;;;;;;;16.85;2.28;;;;;;;9.85;89.17;99324.09;8399779;28;20078;-57
2023/12/22 02:45:32;;;;;;;9.30;2.28;;;;;;;9.83;89.33;99318.88;8400476;28;21583;-58
2023/12/22 02:49:32;;;;;;;15.55;2.00;;;;;;;9.85;90.20;99318.69;8401507;28;20169;-56
2023/12/22 02:53:33;;;;;;;17.08;2.08;;;;;;;9.90;90.07;99305.56;8418503;28;20039;-57
2023/12/22 02:57:33;;;;;;;23.13;2.63;;;;;;;10.01;88.89;99305.25;8455114;28;20032;-56
2023/12/22 03:01:33;;;;;;;21.55;2.63;;;;;;;10.11;88.28;99292.47;8455255;28;20032;-55
2023/12/22 03:05:34;;;;;;;17.88;2.38;;;;;;;10.19;87.50;99284.38;8455747;28;20490;-55
2023/12/22 03:09:34;;;;;;;21.85;2.53;;;;;;;10.32;85.79;99306.31;8455519;28;20327;-55
2023/12/22 03:13:35;;;;;;;9.88;2.40;;;;;;;10.39;85.23;99296.53;8452367;27;20040;-55
2023/12/22 03:17:35;;;;;;;18.77;2.40;;;;;;;10.40;85.42;99292.78;8455023;28;20085;-56
2023/12/22 03:21:36;;;;;;;20.23;2.75;;;;;;;10.36;85.99;99290.59;8454573;28;20038;-55
2023/12/22 03:25:36;;;;;;;14.18;2.45;;;;;;;10.35;86.82;99306.00;8454990;28;20126;-55
2023/12/22 03:29:37;;;;;;;9.20;1.85;;;;;;;10.29;87.27;99306.66;8453012;27;20051;-56
2023/12/22 03:33:37;;;;;;;11.00;1.83;;;;;;;10.33;85.06;99308.00;8454269;28;20040;-55
2023/12/22 03:37:37;;;;;;;17.92;2.13;;;;;;;10.35;84.54;99311.38;8402907;28;20039;-57
2023/12/22 03:41:38;;;;;;;19.27;2.00;;;;;;;10.37;81.33;99314.75;8400406;28;20381;-57
2023/12/22 03:45:38;;;;;;;16.08;2.20;;;;;;;10.08;83.29;99317.09;8394704;28;20047;-57
2023/12/22 03:49:39;;;;;;;9.70;1.40;;;;;;;9.85;86.25;99334.91;8415442;27;20050;-57
2023/12/22 03:53:39;;;;;;;13.13;2.03;;;;;;;9.55;88.06;99354.38;8394257;28;20119;-58
2023/12/22 03:57:39;;;;;;;11.05;1.42;;;;;;;9.46;87.56;99353.47;8392075;28;20069;-57
2023/12/22 04:01:40;;;;;;;12.93;1.45;;;;;;;9.44;87.87;99347.44;8353300;28;20156;-58
2023/12/22 04:05:43;;;;;;;13.18;1.52;;;;;;;9.36;88.28;99358.16;8391183;27;20143;-58
2023/12/22 04:09:44;;;;;;;13.90;1.70;;;;;;;9.30;88.57;99344.50;8409186;28;20521;-57
2023/12/22 04:13:44;;;;;;;13.57;1.67;;;;;;;9.35;88.67;99347.53;8396003;28;20471;-57
2023/12/22 04:17:45;;;;;;;15.60;1.55;;;;;;;9.34;89.19;99348.56;8399343;28;20167;-57
2023/12/22 04:21:45;;;;;;;12.63;1.30;;;;;;;9.32;89.70;99358.66;8396182;27;20055;-57
2023/12/22 04:25:45;;;;;;;12.68;1.65;;;;;;;9.32;90.77;99353.25;8436621;27;20420;-56
2023/12/22 04:29:46;;;;;;;15.02;1.58;;;;;;;9.48;90.17;99345.22;8399528;28;20055;-58
2023/12/22 04:33:46;;;;;;;11.02;2.08;;;;;;;9.82;87.97;99343.31;8397310;28;20112;-57
2023/12/22 04:37:47;;;;;;;14.90;2.72;;;;;;;9.99;87.09;99339.66;8393816;28;20040;-58
2023/12/22 04:41:47;;;;;;;15.48;2.35;;;;;;;10.03;87.82;99333.78;8409180;28;20132;-58
2023/12/22 04:45:48;;;;;;;16.73;1.73;;;;;;;10.18;88.63;99338.56;8413265;28;20272;-58
2023/12/22 04:49:48;;;;;;;10.70;1.65;;;;;;;10.32;88.27;99336.03;8395951;28;20222;-60
2023/12/22 04:53:49;;;;;;;11.68;2.30;;;;;;;10.39;87.53;99353.25;8410563;28;20395;-57
2023/12/22 04:57:51;;;;;;;13.45;1.92;;;;;;;10.48;86.50;99338.75;8416047;28;20096;-56
2023/12/22 05:01:51;;;;;;;19.92;2.50;;;;;;;10.47;86.69;99344.31;8409637;28;20040;-56
2023/12/22 05:05:52;;;;;;;16.58;2.65;;;;;;;10.55;86.84;99364.06;8354955;28;20414;-56
2023/12/22 05:09:54;;;;;;;14.13;2.83;;;;;;;10.62;86.63;99365.09;8354696;28;20124;-57
2023/12/22 05:13:54;;;;;;;13.18;2.33;;;;;;;10.67;86.48;99365.41;8353618;28;20333;-58
2023/12/22 05:17:55;;;;;;;18.80;3.95;;;;;;;10.86;84.75;99375.06;8353592;28;20239;-58
2023/12/22 05:21:56;;;;;;;25.23;2.55;;;;;;;10.90;83.71;99371.84;8351142;28;20517;-58
2023/12/22 05:25:57;;;;;;;19.23;2.35;;;;;;;10.98;82.70;99377.22;8383043;28;20205;-57
2023/12/22 05:30:02;;;;;;;15.25;2.22;;;;;;;11.02;81.83;99381.28;8438033;27;20040;-56
2023/12/22 05:34:03;;;;;;;12.20;2.10;;;;;;;11.08;79.78;99393.28;8452458;28;20435;-56
2023/12/22 05:38:04;;;;;;;6.88;1.67;;;;;;;11.21;78.90;99396.28;8449945;28;20113;-57
2023/12/22 05:42:04;;;;;;;12.00;1.63;;;;;;;11.15;78.78;99381.59;8465570;28;20115;-56
2023/12/22 05:46:05;;;;;;;17.50;2.05;;;;;;;11.14;78.63;99385.34;8456552;28;20047;-55
2023/12/22 05:50:06;;;;;;;13.60;2.58;;;;;;;11.18;77.79;99381.25;8457745;28;20284;-56
2023/12/22 05:54:08;;;;;;;17.27;2.67;;;;;;;11.24;77.98;99406.75;8458026;28;20441;-59
2023/12/22 05:58:08;;;;;;;28.58;3.45;;;;;;;11.20;78.55;99398.13;8454746;27;20088;-59
2023/12/22 06:02:09;;;;;;;20.30;2.53;;;;;;;11.23;78.54;99400.50;8453300;27;20044;-58
2023/12/22 06:06:10;;;;;;;15.63;2.08;;;;;;;11.21;79.75;99413.38;8456821;27;20039;-59
2023/12/22 06:10:10;;;;;;;12.43;1.92;;;;;;;11.11;81.24;99401.91;8476103;27;20456;-59
2023/12/22 06:14:10;;;;;;;18.52;2.30;;;;;;;11.04;82.35;99406.28;8456883;28;20409;-59
2023/12/22 06:18:11;;;;;;;14.25;2.22;;;;;;;10.98;83.80;99401.56;8438794;27;20067;-57
2023/12/22 06:22:11;;;;;;;20.25;2.53;;;;;;;10.94;84.36;99413.72;8457709;27;20039;-57
2023/12/22 06:26:12;;;;;;;17.02;2.45;;;;;;;10.96;84.71;99424.38;8456452;28;20050;-57
2023/12/22 06:30:13;;;;;;;15.60;1.98;;;;;;;10.97;84.87;99418.81;8455717;28;20078;-57
2023/12/22 06:34:13;;;;;;;12.57;1.63;;;;;;;10.79;86.65;99428.94;8450775;28;20460;-57
2023/12/22 06:38:14;;;;;;;9.45;2.33;;;;;;;10.56;90.48;99438.75;8398636;27;20711;-58
2023/12/22 06:42:14;;;;;;;11.15;2.05;;;;;;;10.38;92.85;99445.28;8396242;27;20035;-58
2023/12/22 06:46:16;;;;;;;13.05;1.73;;;;;;;10.22;93.85;99424.50;8406106;27;20238;-58
2023/12/22 06:50:17;;;;;;;12.38;1.83;;;;;;;10.15;92.46;99434.25;8408192;28;20039;-57
2023/12/22 06:54:17;;;;;;;6.30;1.67;;;;;;;10.15;93.78;99419.91;8399701;28;20373;-58
2023/12/22 06:58:17;;;;;;;14.88;2.15;;;;;;;10.07;94.66;99431.53;8401372;28;20253;-57
2023/12/22 07:02:18;;;;;;;11.40;1.70;;;;;;;10.09;93.42;99440.28;8401231;28;20282;-57
2023/12/22 07:06:20;;;;;;;7.43;1.80;;;;;;;10.11;92.60;99446.38;8400325;28;20324;-58
2023/12/22 07:10:21;;;;;;;13.50;2.22;;;;;;;10.21;91.53;99449.78;8415333;27;20128;-58
2023/12/22 07:14:22;;;;;;;11.20;2.20;;;;;;;10.30;92.37;99450.66;8400251;28;20282;-58
2023/12/22 07:18:22;;;;;;;18.95;2.42;;;;;;;10.51;92.53;99446.47;8427669;28;20460;-58
2023/12/22 07:22:22;;;;;;;20.25;3.15;;;;;;;10.63;90.98;99447.84;8454575;28;20039;-57
2023/12/22 07:26:24;;;;;;;20.83;3.30;;;;;;;10.66;91.52;99439.41;8455066;28;20039;-57
2023/12/22 07:30:24;;;;;;;21.60;3.65;;;;;;;10.56;93.92;99432.47;8454663;28;20070;-57
2023/12/22 07:34:25;;;;;;;30.27;3.40;;;;;;;10.59;94.46;99433.00;8455254;28;20050;-57
2023/12/22 07:38:25;;;;;;;39.10;5.50;;;;;;;10.62;95.25;99421.84;8454875;28;20031;-58
2023/12/22 07:42:26;;;;;;;24.63;3.78;;;;;;;10.66;95.60;99417.78;8454547;28;20168;-57
2023/12/22 07:46:28;;;;;;;29.02;4.20;;;;;;;10.66;95.85;99439.41;8453984;28;20513;-58
2023/12/22 07:50:29;;;;;;;31.25;5.47;;;;;;;10.77;95.05;99419.31;8469552;27;20468;-56
2023/12/22 07:54:29;;;;;;;35.92;5.15;;;;;;;10.83;93.94;99424.06;8454193;28;20039;-57
2023/12/22 07:58:30;;;;;;;35.70;4.82;;;;;;;10.83;93.72;99430.28;8454381;28;20435;-58
2023/12/22 08:02:30;;;;;;;37.00;5.40;;;;;;;10.89;93.16;99432.31;8453749;28;20395;-58
2023/12/22 08:06:31;;;;;;;45.65;5.38;;;;;;;10.90;92.60;99428.63;8453742;28;20088;-58
2023/12/22 08:10:31;;;;;;;32.50;5.07;;;;;;;10.96;91.42;99421.69;8453105;28;20520;-58
2023/12/22 08:14:31;;;;;;;28.65;4.20;;;;;;;11.01;91.10;99422.84;8454016;28;20463;-58
2023/12/22 08:18:32;;;;;;;34.35;4.35;;;;;;;11.09;90.59;99432.81;8469641;27;20112;-59
2023/12/22 08:22:32;;;;;;;29.88;4.13;;;;;;;11.11;90.32;99428.09;8449286;28;20066;-57
2023/12/22 08:26:33;;;;;;;28.35;4.78;;;;;;;11.17;89.98;99430.97;8407589;28;20031;-56
2023/12/22 08:30:33;;;;;;;27.13;4.57;;;;;;;11.25;89.32;99444.47;8398457;28;20044;-56
2023/12/22 08:34:34;;;;;;;26.77;3.80;;;;;;;11.25;89.91;99435.50;8398900;28;20552;-56
2023/12/22 08:38:35;;;;;;;24.38;3.95;;;;;;;11.23;90.68;99437.56;8403748;28;20127;-56
2023/12/22 08:42:35;;;;;;;23.08;4.28;;;;;;;11.23;90.73;99430.25;8423467;28;20497;-58
2023/12/22 08:46:36;;;;;;;26.08;4.78;;;;;;;11.25;91.55;99441.75;8470071;28;20497;-57
2023/12/22 08:50:37;;;;;;;28.50;4.60;;;;;;;11.32;91.54;99431.94;8452709;28;20047;-58
2023/12/22 08:54:38;;;;;;;23.10;4.68;;;;;;;11.37;90.93;99418.75;8451921;28;20061;-57
2023/12/22 08:58:40;;;;;;;27.50;4.53;;;;;;;11.53;89.94;99428.69;8449712;28;20567;-59
2023/12/22 09:02:40;;;;;;;24.85;4.03;;;;;;;11.48;89.57;99431.06;8452269;28;20039;-58
2023/12/22 09:06:42;;;;;;;24.55;3.75;;;;;;;11.48;89.79;99431.94;8452811;28;20044;-59
2023/12/22 09:10:42;;;;;;;21.98;3.88;;;;;;;11.50;89.81;99429.88;8465017;28;20066;-57
2023/12/22 09:14:43;;;;;;;22.20;3.75;;;;;;;11.54;89.93;99425.81;8467657;28;20043;-58
2023/12/22 09:18:44;;;;;;;19.27;2.67;;;;;;;11.50;89.86;99416.34;8455056;28;20043;-59
2023/12/22 09:22:45;;;;;;;29.77;4.75;;;;;;;11.59;89.83;99406.34;8458790;28;20039;-58
2023/12/22 09:26:45;;;;;;;23.00;3.83;;;;;;;11.64;89.67;99404.84;8458261;28;20043;-58
2023/12/22 09:30:46;;;;;;;23.48;3.10;;;;;;;11.70;89.82;99409.56;8457929;28;20065;-60
2023/12/22 09:34:46;;;;;;;19.73;3.30;;;;;;;11.69;89.69;99405.13;8458489;28;20269;-59
2023/12/22 09:38:47;;;;;;;12.68;2.65;;;;;;;11.72;90.00;99396.66;8458700;28;20035;-57
2023/12/22 09:42:48;;;;;;;12.55;2.78;;;;;;;11.74;90.56;99389.22;8453624;28;20044;-57
2023/12/22 09:46:50;;;;;;;19.35;2.90;;;;;;;11.72;91.38;99391.25;8453284;28;20035;-58
2023/12/22 09:50:51;;;;;;;13.05;2.70;;;;;;;11.76;91.77;99375.50;8454109;28;20124;-58
2023/12/22 09:54:54;;;;;;;11.10;2.58;;;;;;;11.66;93.60;99364.91;8454452;28;20040;-57
2023/12/22 09:58:56;;;;;;;7.60;2.60;;;;;;;11.63;94.68;99359.84;8455171;28;20566;-55
2023/12/22 10:02:57;;;;;;;7.32;1.95;;;;;;;11.59;95.34;99368.47;8454351;28;20039;-56
2023/12/22 10:07:00;;;;;;;11.98;2.05;;;;;;;11.57;96.33;99360.50;8454621;28;20035;-55
2023/12/22 10:11:01;;;;;;;16.10;2.78;;;;;;;11.49;98.56;99357.81;8453862;28;20067;-56
2023/12/22 10:15:03;;;;;;;11.68;2.08;;;;;;;11.37;100.00;99359.22;8453857;28;20111;-56
2023/12/22 10:19:05;;;;;;;10.32;2.33;;;;;;;11.47;100.00;99351.72;8469891;27;20031;-56
2023/12/22 10:23:05;;;;;;;7.07;2.10;;;;;;;11.51;100.00;99353.09;8453023;28;20091;-58
2023/12/22 10:27:06;;;;;;;5.93;2.10;;;;;;;11.48;100.00;99350.75;8453837;28;20043;-57
2023/12/22 10:31:07;;;;;;;11.50;2.05;;;;;;;11.56;100.00;99347.97;8434675;28;20126;-56
2023/12/22 10:35:08;;;;;;;8.13;2.58;;;;;;;11.49;100.00;99347.00;8452952;28;20108;-55
2023/12/22 10:39:09;;;;;;;4.70;1.30;;;;;;;11.44;100.00;99335.84;8453579;28;20501;-56
2023/12/22 10:43:10;;;;;;;8.10;1.40;;;;;;;11.38;100.00;99350.06;8450262;28;20507;-55
2023/12/22 10:47:11;;;;;;;4.55;1.65;;;;;;;11.40;100.00;99345.34;8448952;28;20911;-56
2023/12/22 10:51:11;;;;;;;13.18;1.92;;;;;;;11.40;100.00;99353.47;8452966;28;20101;-56
2023/12/22 10:55:11;;;;;;;7.97;1.42;;;;;;;11.45;100.00;99348.38;8453334;28;20032;-56
2023/12/22 10:59:12;;;;;;;5.57;1.40;;;;;;;11.46;100.00;99347.34;8454235;28;20523;-57
2023/12/22 11:03:18;;;;;;;10.05;1.70;;;;;;;11.58;100.00;99340.53;8450994;28;20107;-56
2023/12/22 11:07:24;;;;;;;6.57;1.98;;;;;;;11.68;100.00;99335.78;8455038;27;20047;-56
2023/12/22 11:11:31;;;;;;;9.60;3.55;;;;;;;11.76;100.00;99338.47;8454030;28;20047;-57
2023/12/22 11:15:33;;;;;;;5.35;1.80;;;;;;;11.82;100.00;99337.75;8432067;28;20151;-54
2023/12/22 11:19:35;;;;;;;1.92;1.50;;;;;;;11.87;100.00;99340.75;8450824;28;20036;-54
2023/12/22 11:23:37;;;;;;;4.85;1.80;;;;;;;12.10;100.00;99335.38;8450254;28;20116;-54
2023/12/22 11:27:39;;;;;;;6.50;2.03;;;;;;;12.05;100.00;99326.97;8448855;28;20042;-56
2023/12/22 11:31:41;;;;;;;4.45;1.48;;;;;;;12.15;99.49;99332.97;8450463;28;20050;-56
2023/12/22 11:35:42;;;;;;;2.42;1.13;;;;;;;12.22;99.01;99328.53;8452131;28;20039;-55
2023/12/22 11:39:44;;;;;;;1.92;1.10;;;;;;;12.31;98.88;99342.84;8450949;28;20061;-56
2023/12/22 11:43:46;;;;;;;2.70;1.02;;;;;;;12.41;96.83;99332.63;8448926;28;20501;-57
2023/12/22 11:47:47;;;;;;;2.90;1.02;;;;;;;12.56;95.39;99333.53;8451295;28;20031;-57
2023/12/22 11:51:47;;;;;;;1.52;0.70;;;;;;;12.61;95.35;99333.81;8451773;28;20054;-56
2023/12/22 11:56:08;;;;;;;3.35;0.98;;;;;;;12.80;93.38;99306.19;8451093;28;20039;-56
2023/12/22 12:04:41;;;;;;;3.78;0.70;;;;;;;12.90;92.19;99313.03;8289390;27;20516;-59
2023/12/22 12:08:43;;;;;;;1.42;0.65;;;;;;;12.96;91.90;99314.19;8292587;28;20038;-59
2023/12/22 12:12:43;;;;;;;4.45;0.90;;;;;;;13.00;91.90;99337.22;8295292;28;20473;-58
2023/12/22 12:16:44;;;;;;;3.42;1.00;;;;;;;13.03;91.60;99315.16;8295564;28;20121;-59
2023/12/22 12:20:45;;;;;;;4.85;1.13;;;;;;;13.05;91.44;99311.22;8297609;28;20119;-60
2023/12/22 12:24:45;;;;;;;2.92;0.90;;;;;;;13.07;91.77;99308.31;8293553;28;20069;-56
2023/12/22 12:28:47;;;;;;;3.28;1.20;;;;;;;13.06;91.58;99293.06;8289044;28;20053;-56
2023/12/22 12:32:49;;;;;;;5.38;1.30;;;;;;;13.11;91.21;99283.34;8294940;28;20419;-57
2023/12/22 12:36:50;;;;;;;5.13;1.13;;;;;;;13.13;90.46;99275.00;8297673;28;20042;-56
2023/12/22 12:40:51;;;;;;;3.33;1.40;;;;;;;13.14;91.12;99285.66;8297219;28;20034;-57
2023/12/22 12:44:53;;;;;;;4.85;0.90;;;;;;;13.06;91.59;99290.34;8296375;28;20049;-58
2023/12/22 12:49:11;;;;;;;3.10;1.08;;;;;;;12.87;92.73;99285.44;8296843;28;20156;-57
2023/12/22 12:53:11;;;;;;;6.15;1.23;;;;;;;12.66;95.36;99278.00;8292140;28;20042;-57
2023/12/22 12:57:15;;;;;;;5.43;1.20;;;;;;;12.56;98.19;99266.59;8297309;28;20034;-56
2023/12/22 13:01:16;;;;;;;4.75;1.30;;;;;;;12.45;100.00;99287.88;8285147;28;20129;-57
2023/12/22 13:05:22;;;;;;;3.22;1.20;;;;;;;12.46;100.00;99281.41;8296409;28;20045;-58
2023/12/22 13:09:32;;;;;;;4.85;1.92;;;;;;;12.53;98.88;99274.25;8294463;28;20061;-58
2023/12/22 13:13:41;;;;;;;5.50;1.23;;;;;;;12.63;98.34;99304.66;8286158;28;20502;-58
2023/12/22 13:17:43;;;;;;;5.13;2.20;;;;;;;12.51;97.27;99304.25;8271925;28;20072;-56
2023/12/22 13:21:44;;;;;;;4.30;2.00;;;;;;;12.67;97.47;99305.97;8273238;28;20056;-56
2023/12/22 13:25:46;;;;;;;3.03;1.30;;;;;;;12.74;96.49;99301.47;8273090;28;20042;-57
2023/12/22 13:29:48;;;;;;;5.38;1.33;;;;;;;12.80;95.14;99300.75;8271414;28;20350;-58
2023/12/22 13:33:49;;;;;;;4.50;1.27;;;;;;;12.82;94.48;99298.72;8275849;28;20389;-57
2023/12/22 13:37:50;;;;;;;4.93;1.38;;;;;;;12.83;94.51;99305.81;8269519;28;20057;-57
2023/12/22 13:41:50;;;;;;;5.03;1.50;;;;;;;12.83;94.68;99305.81;8270863;28;20093;-58
2023/12/22 13:45:51;;;;;;;6.25;1.50;;;;;;;12.83;94.14;99295.81;8271881;28;20092;-55
2023/12/22 13:49:52;;;;;;;3.05;1.00;;;;;;;12.92;92.91;99302.84;8271071;28;20050;-57
2023/12/22 13:53:52;;;;;;;5.35;0.93;;;;;;;12.95;92.70;99305.19;8272644;28;20435;-57
2023/12/22 13:58:01;;;;;;;4.10;1.23;;;;;;;13.03;92.02;99307.00;8273095;28;20044;-56
2023/12/22 14:02:02;;;;;;;4.18;1.35;;;;;;;13.02;91.77;99310.75;8270195;28;20039;-56
2023/12/22 14:06:03;;;;;;;3.88;1.48;;;;;;;13.05;91.80;99319.34;8271021;28;20107;-55
2023/12/22 14:10:05;;;;;;;12.38;1.17;;;;;;;13.08;91.70;99326.25;8272842;28;20049;-61
2023/12/22 14:14:06;;;;;;;5.45;1.50;;;;;;;13.02;93.37;99333.28;8272569;28;20137;-56
2023/12/22 14:18:06;;;;;;;4.65;1.17;;;;;;;12.94;93.16;99340.63;8275636;28;20500;-56
2023/12/22 14:22:07;;;;;;;5.75;1.48;;;;;;;12.92;93.51;99342.69;8270423;28;20089;-56
2023/12/22 14:26:07;;;;;;;8.43;1.20;;;;;;;12.91;93.72;99341.84;8271614;28;20044;-57
2023/12/22 14:30:08;;;;;;;10.57;1.40;;;;;;;12.86;93.28;99338.00;8271358;28;20195;-56
2023/12/22 14:34:08;;;;;;;5.35;1.45;;;;;;;12.85;92.97;99349.88;8271632;28;20396;-58
2023/12/22 14:38:09;;;;;;;7.00;1.50;;;;;;;12.87;93.12;99361.41;8270813;28;20488;-57
2023/12/22 14:42:09;;;;;;;6.35;1.67;;;;;;;12.89;93.13;99364.75;8277113;28;20042;-58
2023/12/22 14:46:10;;;;;;;4.88;1.30;;;;;;;12.81;94.45;99384.66;8283534;28;20057;-56
2023/12/22 14:50:11;;;;;;;4.57;1.35;;;;;;;12.75;95.61;99371.81;8283211;28;20042;-58
2023/12/22 14:54:11;;;;;;;5.55;1.15;;;;;;;12.71;95.90;99375.06;8280786;28;20448;-58
2023/12/22 14:58:13;;;;;;;4.63;0.88;;;;;;;12.63;97.32;99380.56;8270254;28;20034;-59
2023/12/22 15:02:14;;;;;;;5.03;1.20;;;;;;;12.52;99.38;99389.13;8267763;28;20045;-59
2023/12/22 15:06:14;;;;;;;6.80;1.50;;;;;;;12.45;100.00;99380.03;8272095;28;20046;-59
2023/12/22 15:10:16;;;;;;;7.65;1.75;;;;;;;12.43;100.00;99392.91;8287679;28;20065;-60
2023/12/22 15:14:16;;;;;;;9.88;1.98;;;;;;;12.46;100.00;99403.38;8266187;28;20073;-58
2023/12/22 15:18:17;;;;;;;4.70;1.60;;;;;;;12.42;100.00;99404.78;8271163;28;20050;-59
2023/12/22 15:22:18;;;;;;;8.73;1.77;;;;;;;12.38;100.00;99409.72;8265527;28;20038;-58
2023/12/22 15:26:23;;;;;;;4.85;1.65;;;;;;;12.34;100.00;99407.53;8270822;28;20092;-60
2023/12/22 15:30:25;;;;;;;4.78;1.60;;;;;;;12.37;100.00;99401.75;8263188;28;20435;-56
2023/12/22 15:34:26;;;;;;;5.28;1.80;;;;;;;12.35;100.00;99414.66;8278098;28;20031;-59
2023/12/22 15:38:27;;;;;;;10.40;2.47;;;;;;;12.39;100.00;99415.97;8277390;28;20346;-59
2023/12/22 15:42:27;;;;;;;9.25;1.48;;;;;;;12.37;100.00;99423.44;8272685;28;20058;-58
2023/12/22 15:46:28;;;;;;;8.50;1.67;;;;;;;12.43;100.00;99417.31;8276655;28;20050;-57
2023/12/22 15:50:28;;;;;;;4.10;1.00;;;;;;;12.48;98.87;99420.31;8274927;28;20114;-57
2023/12/22 15:54:29;;;;;;;9.18;1.08;;;;;;;12.45;98.94;99426.97;8275089;28;20044;-56
2023/12/22 15:58:29;;;;;;;7.68;1.50;;;;;;;12.38;100.00;99425.16;8272336;28;20129;-58
2023/12/22 16:02:30;;;;;;;6.45;1.58;;;;;;;12.42;100.00;99437.31;8277255;28;20041;-56
2023/12/22 16:06:30;;;;;;;6.97;2.33;;;;;;;12.41;99.75;99430.22;8267930;28;20038;-56
2023/12/22 16:10:30;;;;;;;6.20;1.55;;;;;;;12.41;99.49;99432.91;8269351;28;20049;-57
2023/12/22 16:14:33;;;;;;;10.05;3.22;;;;;;;12.41;99.74;99436.47;8280771;28;20030;-57
2023/12/22 16:18:38;;;;;;;;;;;;;;;12.42;100.00;99448.16;8273705;28;20099;-58
2023/12/22 16:22:42;;;;;;;10.65;2.17;;;;;;;12.39;100.00;99440.38;8269430;28;19932;-58
2023/12/22 16:26:42;;;;;;;7.15;1.63;;;;;;;12.37;100.00;99437.00;8273215;28;20034;-58
2023/12/22 16:30:43;;;;;;;5.70;1.17;;;;;;;12.38;100.00;99444.13;8275451;28;20100;-57
2023/12/22 16:34:44;;;;;;;9.32;1.98;;;;;;;12.40;100.00;99450.19;8286212;28;20045;-59
2023/12/22 16:38:44;;;;;;;4.70;1.30;;;;;;;12.36;100.00;99448.84;8295068;28;20053;-57
2023/12/22 16:42:44;;;;;;;7.65;1.45;;;;;;;12.34;100.00;99456.31;8283078;28;20042;-58
2023/12/22 16:46:47;;;;;;;6.85;1.92;;;;;;;12.27;100.00;99449.94;8286011;28;20323;-58
2023/12/22 16:50:47;;;;;;;12.52;2.17;;;;;;;12.39;100.00;99464.78;8303145;28;20044;-57
2023/12/22 16:54:48;;;;;;;15.32;1.70;;;;;;;12.32;100.00;99461.91;8289546;28;20037;-56
2023/12/22 16:58:48;;;;;;;11.00;2.40;;;;;;;12.36;100.00;99454.28;8291095;28;20542;-57
2023/12/22 17:02:49;;;;;;;7.45;2.00;;;;;;;12.33;100.00;99465.47;8288015;28;20050;-57
2023/12/22 17:06:51;;;;;;;7.60;1.38;;;;;;;12.31;100.00;99468.38;8281033;28;20377;-56
2023/12/22 17:10:55;;;;;;;14.05;2.33;;;;;;;12.35;100.00;99463.44;8274702;28;20129;-57
2023/12/22 17:14:56;;;;;;;9.25;2.05;;;;;;;12.36;100.00;99465.13;8270584;28;20050;-58
2023/12/22 17:18:56;;;;;;;6.78;2.70;;;;;;;12.39;99.67;99470.19;8280876;28;20042;-58
2023/12/22 17:22:57;;;;;;;7.43;1.42;;;;;;;12.46;98.18;99476.59;8271191;28;20137;-58
2023/12/22 17:26:58;;;;;;;13.40;2.20;;;;;;;12.55;97.10;99486.34;8275538;28;20038;-57
2023/12/22 17:30:58;;;;;;;5.43;1.55;;;;;;;12.49;96.94;99468.94;8279497;28;20048;-57
2023/12/22 17:34:59;;;;;;;10.90;1.40;;;;;;;12.67;95.04;99471.38;8282957;28;20053;-56
2023/12/22 17:39:00;;;;;;;6.93;1.15;;;;;;;12.79;93.90;99472.66;8283853;28;20057;-56
2023/12/22 17:43:01;;;;;;;5.40;1.10;;;;;;;12.80;93.67;99479.75;8285664;28;20107;-57
2023/12/22 17:47:02;;;;;;;9.02;1.27;;;;;;;12.78;93.41;99481.81;8278909;28;20046;-57
2023/12/22 17:51:03;;;;;;;5.35;1.33;;;;;;;12.85;92.84;99483.63;8273189;28;20124;-57
2023/12/22 17:55:04;;;;;;;4.38;1.10;;;;;;;12.84;92.47;99486.53;8252606;28;20046;-58
2023/12/22 17:59:05;;;;;;;7.40;1.50;;;;;;;12.94;91.43;99495.25;8260168;28;20149;-56
2023/12/22 18:03:05;;;;;;;11.07;1.70;;;;;;;12.92;91.43;99500.00;8270462;28;20053;-56
2023/12/22 18:07:06;;;;;;;6.38;1.70;;;;;;;12.97;90.72;99511.19;8270166;28;20553;-57
2023/12/22 18:11:06;;;;;;;7.85;1.27;;;;;;;12.98;90.57;99502.00;8276601;28;20147;-57
2023/12/22 18:15:07;;;;;;;7.93;1.17;;;;;;;13.02;89.52;99514.25;8271835;28;20089;-57
2023/12/22 18:19:09;;;;;;;7.10;1.15;;;;;;;13.06;88.74;99518.28;8279652;28;20062;-57
2023/12/22 18:23:10;;;;;;;11.05;1.50;;;;;;;13.14;88.60;99516.34;8279023;28;20383;-55
2023/12/22 18:27:10;;;;;;;9.32;2.00;;;;;;;13.10;88.28;99519.59;8274148;28;20168;-57
2023/12/22 18:31:12;;;;;;;7.20;1.35;;;;;;;13.11;87.92;99513.97;8274298;28;20042;-57
2023/12/22 18:35:12;;;;;;;6.18;1.35;;;;;;;13.14;87.56;99520.91;8270467;28;20452;-56
2023/12/22 18:39:13;;;;;;;7.82;1.30;;;;;;;13.18;87.06;99522.25;8269534;28;20062;-57
2023/12/22 18:43:14;;;;;;;7.05;1.35;;;;;;;13.11;88.09;99532.97;8276271;28;20050;-55
2023/12/22 18:47:14;;;;;;;7.72;1.38;;;;;;;13.04;88.80;99547.44;8276919;28;20551;-56
2023/12/22 18:51:17;;;;;;;9.75;1.27;;;;;;;13.01;88.91;99545.94;8272976;28;20034;-55